SPMJK EPRZ-EPKT
Flight info
| Callsign | SPMJK |
|---|---|
| Flight time | N/A |
| Altitude | 4000 |
| Route | DCT RSW STAY1/0030 RSW/N0270F160 DCT GOVRI DCT KAK STAY2/0040 KAK DCT KAX |
| Aircraft | HDJT/L-SABDGRWY/H |
Departure
| Time | 2026-04-21 18:17 |
|---|---|
| Airport | Rzeszów-Jasionka Airport (EPRZ) |
Arrival
| Time | N/A |
|---|---|
| Airport | Katowice Wojciech Korfanty International Airport (EPKT) |
| Time | Latitude | Longitude | Altitude | Speed | Heading |
|---|---|---|---|---|---|
| 2026-04-21 18:05 | 50.11264 | 22.01158 | 679 ft | 0 kts | 1° |
| 2026-04-21 18:12 | 50.11265 | 22.01158 | 652 ft | 1 kts | 8° |
| 2026-04-21 18:12 | 50.11268 | 22.01167 | 679 ft | 4 kts | 102° |
| 2026-04-21 18:12 | 50.11200 | 22.01155 | 679 ft | 11 kts | 182° |
| 2026-04-21 18:12 | 50.11169 | 22.01205 | 679 ft | 8 kts | 94° |
| 2026-04-21 18:13 | 50.11167 | 22.01301 | 680 ft | 10 kts | 91° |
| 2026-04-21 18:13 | 50.11166 | 22.01421 | 680 ft | 12 kts | 91° |
| 2026-04-21 18:13 | 50.11164 | 22.01561 | 680 ft | 14 kts | 91° |
| 2026-04-21 18:13 | 50.11162 | 22.01724 | 680 ft | 16 kts | 91° |
| 2026-04-21 18:14 | 50.11158 | 22.02104 | 680 ft | 18 kts | 90° |
| 2026-04-21 18:14 | 50.11153 | 22.02275 | 680 ft | 10 kts | 111° |
| 2026-04-21 18:14 | 50.11118 | 22.02295 | 678 ft | 8 kts | 184° |
| 2026-04-21 18:15 | 50.11080 | 22.02293 | 673 ft | 0 kts | 181° |
| 2026-04-21 18:15 | 50.11042 | 22.02291 | 671 ft | 13 kts | 181° |
| 2026-04-21 18:16 | 50.10992 | 22.02237 | 671 ft | 1 kts | 265° |
| 2026-04-21 18:16 | 50.10992 | 22.02210 | 671 ft | 3 kts | 270° |
| 2026-04-21 18:16 | 50.10996 | 22.01839 | 673 ft | 70 kts | 271° |
| 2026-04-21 18:16 | 50.11012 | 22.00697 | 730 ft | 133 kts | 271° |
| 2026-04-21 18:17 | 50.11046 | 21.99084 | 1139 ft | 166 kts | 273° |
| 2026-04-21 18:17 | 50.11061 | 21.97155 | 1718 ft | 193 kts | 271° |
| 2026-04-21 18:17 | 50.11030 | 21.94938 | 2305 ft | 216 kts | 271° |
| 2026-04-21 18:17 | 50.10969 | 21.92521 | 2848 ft | 227 kts | 271° |
| 2026-04-21 18:18 | 50.10927 | 21.90879 | 3122 ft | 230 kts | 271° |
| 2026-04-21 18:18 | 50.10951 | 21.88396 | 3504 ft | 228 kts | 285° |
| 2026-04-21 18:18 | 50.11687 | 21.86296 | 3888 ft | 221 kts | 319° |
| 2026-04-21 18:18 | 50.13044 | 21.85192 | 4004 ft | 221 kts | 351° |
| 2026-04-21 18:19 | 50.14539 | 21.85458 | 4009 ft | 219 kts | 24° |
| 2026-04-21 18:19 | 50.15657 | 21.86994 | 4011 ft | 221 kts | 56° |
| 2026-04-21 18:19 | 50.16291 | 21.89198 | 4012 ft | 223 kts | 66° |
| 2026-04-21 18:19 | 50.16846 | 21.91474 | 4010 ft | 223 kts | 66° |
| 2026-04-21 18:20 | 50.17257 | 21.93791 | 4009 ft | 226 kts | 81° |
| 2026-04-21 18:20 | 50.17284 | 21.96267 | 4009 ft | 228 kts | 88° |
| 2026-04-21 18:20 | 50.17314 | 21.98734 | 4010 ft | 227 kts | 83° |
| 2026-04-21 18:20 | 50.17440 | 22.01173 | 4007 ft | 227 kts | 82° |
| 2026-04-21 18:21 | 50.17563 | 22.03635 | 4012 ft | 228 kts | 83° |
| 2026-04-21 18:21 | 50.17667 | 22.06103 | 4008 ft | 227 kts | 83° |
| 2026-04-21 18:21 | 50.17777 | 22.08570 | 4007 ft | 228 kts | 83° |
| 2026-04-21 18:21 | 50.17881 | 22.11036 | 4010 ft | 227 kts | 83° |
| 2026-04-21 18:22 | 50.17991 | 22.13503 | 4011 ft | 228 kts | 83° |
| 2026-04-21 18:22 | 50.18098 | 22.15938 | 4010 ft | 228 kts | 83° |
| 2026-04-21 18:22 | 50.18203 | 22.18406 | 4010 ft | 227 kts | 83° |
| 2026-04-21 18:22 | 50.18307 | 22.20874 | 4010 ft | 228 kts | 83° |
| 2026-04-21 18:23 | 50.18417 | 22.23348 | 4010 ft | 228 kts | 83° |
| 2026-04-21 18:23 | 50.18518 | 22.25817 | 4011 ft | 227 kts | 83° |
| 2026-04-21 18:23 | 50.18604 | 22.28282 | 4012 ft | 228 kts | 88° |
| 2026-04-21 18:23 | 50.18284 | 22.30681 | 4014 ft | 225 kts | 108° |
| 2026-04-21 18:24 | 50.17558 | 22.32752 | 4008 ft | 216 kts | 124° |
| 2026-04-21 18:24 | 50.16474 | 22.34417 | 4001 ft | 219 kts | 142° |
| 2026-04-21 18:24 | 50.15133 | 22.35515 | 4000 ft | 221 kts | 159° |
| 2026-04-21 18:24 | 50.13617 | 22.35909 | 3978 ft | 223 kts | 186° |
| 2026-04-21 18:25 | 50.12165 | 22.35138 | 3963 ft | 220 kts | 213° |
| 2026-04-21 18:25 | 50.11102 | 22.33509 | 3954 ft | 217 kts | 241° |
| 2026-04-21 18:25 | 50.10657 | 22.31305 | 3923 ft | 212 kts | 269° |
| 2026-04-21 18:25 | 50.10637 | 22.29054 | 3844 ft | 199 kts | 274° |
| 2026-04-21 18:26 | 50.10652 | 22.26904 | 3585 ft | 199 kts | 275° |
| 2026-04-21 18:26 | 50.10696 | 22.24740 | 3308 ft | 198 kts | 275° |
| 2026-04-21 18:26 | 50.10707 | 22.22686 | 3040 ft | 187 kts | 275° |
| 2026-04-21 18:26 | 50.10749 | 22.20664 | 2784 ft | 186 kts | 276° |
| 2026-04-21 18:27 | 50.10766 | 22.18648 | 2529 ft | 185 kts | 275° |
| 2026-04-21 18:27 | 50.10801 | 22.16641 | 2272 ft | 184 kts | 276° |
| 2026-04-21 18:27 | 50.10821 | 22.14725 | 2023 ft | 168 kts | 274° |
| 2026-04-21 18:27 | 50.10840 | 22.13059 | 1818 ft | 143 kts | 276° |
| 2026-04-21 18:28 | 50.10869 | 22.11531 | 1602 ft | 139 kts | 275° |
| 2026-04-21 18:28 | 50.10888 | 22.10058 | 1403 ft | 130 kts | 274° |
| 2026-04-21 18:28 | 50.10905 | 22.08702 | 1228 ft | 120 kts | 273° |
| 2026-04-21 18:28 | 50.10920 | 22.07441 | 1071 ft | 113 kts | 272° |
| 2026-04-21 18:29 | 50.10938 | 22.06251 | 928 ft | 109 kts | 272° |
| 2026-04-21 18:29 | 50.10953 | 22.05073 | 786 ft | 109 kts | 271° |
| 2026-04-21 18:29 | 50.10967 | 22.03946 | 679 ft | 94 kts | 272° |
| 2026-04-21 18:29 | 50.10980 | 22.03037 | 680 ft | 80 kts | 271° |
| 2026-04-21 18:30 | 50.10993 | 22.02115 | 673 ft | 98 kts | 270° |
| 2026-04-21 18:30 | 50.11008 | 22.00807 | 772 ft | 140 kts | 271° |
| 2026-04-21 18:30 | 50.11019 | 21.99121 | 1317 ft | 172 kts | 272° |
| 2026-04-21 18:30 | 50.11071 | 21.97050 | 1941 ft | 209 kts | 275° |
| 2026-04-21 18:31 | 50.11110 | 21.94608 | 2506 ft | 245 kts | 274° |
| 2026-04-21 18:31 | 50.11146 | 21.91777 | 3059 ft | 276 kts | 274° |
| 2026-04-21 18:31 | 50.11183 | 21.88705 | 3595 ft | 277 kts | 274° |
| 2026-04-21 18:31 | 50.11210 | 21.85818 | 3985 ft | 255 kts | 274° |
| 2026-04-21 18:32 | 50.11296 | 21.83217 | 3988 ft | 235 kts | 285° |
| 2026-04-21 18:32 | 50.12032 | 21.81047 | 3991 ft | 225 kts | 318° |
| 2026-04-21 18:32 | 50.13372 | 21.79936 | 4001 ft | 219 kts | 351° |
| 2026-04-21 18:32 | 50.14857 | 21.80227 | 4013 ft | 218 kts | 25° |
| 2026-04-21 18:33 | 50.15970 | 21.81810 | 4013 ft | 222 kts | 57° |
| 2026-04-21 18:33 | 50.16599 | 21.84025 | 4012 ft | 223 kts | 66° |
| 2026-04-21 18:33 | 50.17152 | 21.86287 | 4009 ft | 223 kts | 66° |
| 2026-04-21 18:33 | 50.17695 | 21.88524 | 4009 ft | 223 kts | 66° |
| 2026-04-21 18:34 | 50.18097 | 21.90870 | 4011 ft | 226 kts | 83° |
| 2026-04-21 18:34 | 50.18069 | 21.93341 | 4009 ft | 228 kts | 90° |
| 2026-04-21 18:34 | 50.18024 | 21.95814 | 4010 ft | 227 kts | 86° |
| 2026-04-21 18:34 | 50.18087 | 21.98284 | 4011 ft | 227 kts | 84° |
| 2026-04-21 18:35 | 50.18141 | 21.99914 | 4010 ft | 227 kts | 84° |
| 2026-04-21 18:35 | 50.18209 | 22.03194 | 4009 ft | 228 kts | 85° |
| 2026-04-21 18:35 | 50.18262 | 22.05668 | 4010 ft | 228 kts | 85° |
| 2026-04-21 18:35 | 50.18315 | 22.08141 | 4009 ft | 228 kts | 85° |
| 2026-04-21 18:36 | 50.18369 | 22.10606 | 4009 ft | 228 kts | 85° |
| 2026-04-21 18:36 | 50.18420 | 22.13058 | 4007 ft | 228 kts | 85° |
| 2026-04-21 18:36 | 50.18471 | 22.15535 | 4009 ft | 228 kts | 85° |
| 2026-04-21 18:36 | 50.18524 | 22.18005 | 4007 ft | 228 kts | 85° |
| 2026-04-21 18:37 | 50.18573 | 22.20479 | 4010 ft | 228 kts | 85° |
| 2026-04-21 18:37 | 50.18622 | 22.22961 | 4012 ft | 228 kts | 85° |
| 2026-04-21 18:37 | 50.18672 | 22.25407 | 4012 ft | 228 kts | 85° |
| 2026-04-21 18:37 | 50.18617 | 22.27884 | 4013 ft | 231 kts | 100° |
| 2026-04-21 18:38 | 50.17924 | 22.30157 | 4009 ft | 236 kts | 123° |
| 2026-04-21 18:38 | 50.16700 | 22.31872 | 4012 ft | 240 kts | 148° |
| 2026-04-21 18:38 | 50.15133 | 22.32686 | 4013 ft | 243 kts | 173° |
| 2026-04-21 18:38 | 50.13455 | 22.32432 | 3894 ft | 242 kts | 199° |
| 2026-04-21 18:39 | 50.11995 | 22.31140 | 3775 ft | 239 kts | 224° |
| 2026-04-21 18:39 | 50.11052 | 22.29182 | 3651 ft | 218 kts | 247° |
| 2026-04-21 18:39 | 50.10658 | 22.26966 | 3434 ft | 212 kts | 269° |
| 2026-04-21 18:39 | 50.10685 | 22.24680 | 3170 ft | 209 kts | 276° |
| 2026-04-21 18:40 | 50.10713 | 22.22411 | 2893 ft | 208 kts | 274° |
| 2026-04-21 18:40 | 50.10739 | 22.20193 | 2617 ft | 206 kts | 275° |
| 2026-04-21 18:40 | 50.10761 | 22.18701 | 2468 ft | 200 kts | 275° |
| 2026-04-21 18:40 | 50.10800 | 22.15933 | 2171 ft | 187 kts | 276° |
| 2026-04-21 18:41 | 50.10832 | 22.13910 | 1918 ft | 184 kts | 275° |
| 2026-04-21 18:41 | 50.10852 | 22.12051 | 1676 ft | 158 kts | 275° |
| 2026-04-21 18:41 | 50.10874 | 22.10489 | 1455 ft | 139 kts | 274° |
| 2026-04-21 18:41 | 50.10896 | 22.09046 | 1256 ft | 126 kts | 274° |
| 2026-04-21 18:42 | 50.10916 | 22.07720 | 1086 ft | 120 kts | 273° |
| 2026-04-21 18:42 | 50.10934 | 22.06428 | 934 ft | 121 kts | 272° |
| 2026-04-21 18:42 | 50.10951 | 22.05132 | 781 ft | 114 kts | 271° |
| 2026-04-21 18:42 | 50.10970 | 22.03973 | 686 ft | 98 kts | 272° |
| 2026-04-21 18:43 | 50.10982 | 22.03043 | 680 ft | 76 kts | 271° |
| 2026-04-21 18:43 | 50.10991 | 22.02282 | 670 ft | 73 kts | 271° |
| 2026-04-21 18:43 | 50.11005 | 22.01227 | 691 ft | 126 kts | 271° |
| 2026-04-21 18:43 | 50.11027 | 21.99533 | 977 ft | 182 kts | 271° |
| 2026-04-21 18:44 | 50.11036 | 21.97398 | 1538 ft | 204 kts | 271° |
| 2026-04-21 18:44 | 50.11018 | 21.95118 | 2089 ft | 221 kts | 271° |
| 2026-04-21 18:44 | 50.10962 | 21.92680 | 2615 ft | 225 kts | 271° |
| 2026-04-21 18:44 | 50.10901 | 21.90216 | 3126 ft | 229 kts | 271° |
| 2026-04-21 18:45 | 50.10835 | 21.87715 | 3641 ft | 231 kts | 270° |
| 2026-04-21 18:45 | 50.10767 | 21.85216 | 3997 ft | 238 kts | 271° |
| 2026-04-21 18:45 | 50.10696 | 21.82641 | 3994 ft | 238 kts | 270° |
| 2026-04-21 18:45 | 50.10625 | 21.79992 | 3999 ft | 242 kts | 271° |
| 2026-04-21 18:46 | 50.10556 | 21.77394 | 4001 ft | 244 kts | 270° |
| 2026-04-21 18:46 | 50.10486 | 21.74684 | 4007 ft | 255 kts | 270° |
| 2026-04-21 18:46 | 50.10433 | 21.71944 | 4013 ft | 253 kts | 272° |
| 2026-04-21 18:46 | 50.10530 | 21.69217 | 4005 ft | 250 kts | 287° |
| 2026-04-21 18:47 | 50.11327 | 21.66918 | 4006 ft | 244 kts | 316° |
| 2026-04-21 18:47 | 50.12763 | 21.65616 | 4011 ft | 239 kts | 347° |
| 2026-04-21 18:47 | 50.14407 | 21.65699 | 4013 ft | 239 kts | 18° |
| 2026-04-21 18:47 | 50.15774 | 21.67144 | 4015 ft | 241 kts | 49° |
| 2026-04-21 18:48 | 50.16451 | 21.69527 | 4015 ft | 247 kts | 79° |
| 2026-04-21 18:48 | 50.16249 | 21.72155 | 4014 ft | 253 kts | 109° |
| 2026-04-21 18:48 | 50.15185 | 21.74365 | 4016 ft | 259 kts | 139° |
| 2026-04-21 18:48 | 50.13703 | 21.75855 | 4009 ft | 245 kts | 153° |
| 2026-04-21 18:49 | 50.12045 | 21.76361 | 4007 ft | 245 kts | 181° |
| 2026-04-21 18:49 | 50.10366 | 21.76119 | 4011 ft | 244 kts | 186° |
| 2026-04-21 18:49 | 50.09243 | 21.75919 | 4010 ft | 244 kts | 186° |
| 2026-04-21 18:49 | 50.07001 | 21.75515 | 4011 ft | 243 kts | 186° |
| 2026-04-21 18:50 | 50.05314 | 21.75212 | 4009 ft | 244 kts | 186° |
| 2026-04-21 18:50 | 50.03624 | 21.74902 | 4012 ft | 243 kts | 187° |
| 2026-04-21 18:50 | 50.01959 | 21.74602 | 4013 ft | 243 kts | 186° |
| 2026-04-21 18:50 | 50.00255 | 21.74294 | 4014 ft | 244 kts | 187° |
| 2026-04-21 18:51 | 49.98551 | 21.73989 | 4017 ft | 259 kts | 186° |
| 2026-04-21 18:51 | 49.96736 | 21.73660 | 4011 ft | 262 kts | 187° |
| 2026-04-21 18:51 | 49.94917 | 21.73336 | 4015 ft | 263 kts | 186° |
| 2026-04-21 18:51 | 49.93089 | 21.73017 | 4015 ft | 264 kts | 185° |
| 2026-04-21 18:52 | 49.91302 | 21.73338 | 3995 ft | 262 kts | 158° |
| 2026-04-21 18:52 | 49.89836 | 21.74951 | 3998 ft | 258 kts | 127° |
| 2026-04-21 18:52 | 49.89101 | 21.77425 | 3999 ft | 250 kts | 96° |
| 2026-04-21 18:52 | 49.89171 | 21.80051 | 4009 ft | 246 kts | 77° |
| 2026-04-21 18:53 | 49.89478 | 21.82597 | 4009 ft | 230 kts | 76° |
| 2026-04-21 18:53 | 49.89767 | 21.85025 | 4003 ft | 227 kts | 76° |
| 2026-04-21 18:53 | 49.90101 | 21.87413 | 3998 ft | 225 kts | 68° |
| 2026-04-21 18:53 | 49.90773 | 21.89545 | 3996 ft | 222 kts | 58° |
| 2026-04-21 18:54 | 49.91489 | 21.91671 | 4001 ft | 222 kts | 62° |
| 2026-04-21 18:54 | 49.92096 | 21.93894 | 4006 ft | 223 kts | 66° |
| 2026-04-21 18:54 | 49.92669 | 21.96140 | 4002 ft | 223 kts | 65° |
| 2026-04-21 18:54 | 49.93257 | 21.98336 | 4001 ft | 223 kts | 64° |
| 2026-04-21 18:55 | 49.93660 | 21.99842 | 4009 ft | 223 kts | 65° |
| 2026-04-21 18:55 | 49.94447 | 22.02793 | 4006 ft | 223 kts | 65° |
| 2026-04-21 18:55 | 49.95038 | 22.05026 | 4004 ft | 223 kts | 65° |
| 2026-04-21 18:55 | 49.95629 | 22.07249 | 4007 ft | 223 kts | 65° |
| 2026-04-21 18:56 | 49.96221 | 22.09482 | 4006 ft | 223 kts | 65° |
| 2026-04-21 18:56 | 49.96807 | 22.11683 | 4006 ft | 223 kts | 65° |
| 2026-04-21 18:56 | 49.97399 | 22.13916 | 4008 ft | 223 kts | 65° |
| 2026-04-21 18:56 | 49.97985 | 22.16142 | 4003 ft | 222 kts | 65° |
| 2026-04-21 18:57 | 49.98566 | 22.18350 | 4004 ft | 223 kts | 65° |
| 2026-04-21 18:57 | 49.99156 | 22.20581 | 4004 ft | 224 kts | 65° |
| 2026-04-21 18:57 | 49.99750 | 22.22827 | 4004 ft | 223 kts | 65° |
| 2026-04-21 18:57 | 50.00338 | 22.25067 | 4009 ft | 223 kts | 65° |
| 2026-04-21 18:58 | 50.00924 | 22.27269 | 4007 ft | 223 kts | 65° |
| 2026-04-21 18:58 | 50.01511 | 22.29508 | 4009 ft | 223 kts | 65° |
| 2026-04-21 18:58 | 50.02251 | 22.31597 | 4006 ft | 212 kts | 49° |
| 2026-04-21 18:58 | 50.03244 | 22.33112 | 3993 ft | 199 kts | 36° |
| 2026-04-21 18:59 | 50.04455 | 22.34204 | 3994 ft | 197 kts | 24° |
| 2026-04-21 18:59 | 50.05691 | 22.35030 | 3995 ft | 189 kts | 20° |
| 2026-04-21 18:59 | 50.06931 | 22.35544 | 4000 ft | 185 kts | 5° |
| 2026-04-21 18:59 | 50.08221 | 22.35313 | 3939 ft | 188 kts | 344° |
| 2026-04-21 19:00 | 50.09365 | 22.34340 | 3868 ft | 190 kts | 322° |
| 2026-04-21 19:00 | 50.10203 | 22.32739 | 3795 ft | 194 kts | 301° |
| 2026-04-21 19:00 | 50.10582 | 22.30731 | 3737 ft | 191 kts | 278° |
| 2026-04-21 19:00 | 50.10606 | 22.28632 | 3639 ft | 201 kts | 275° |
| 2026-04-21 19:01 | 50.10657 | 22.26474 | 3507 ft | 195 kts | 277° |
| 2026-04-21 19:01 | 50.10731 | 22.24417 | 3409 ft | 180 kts | 276° |
| 2026-04-21 19:01 | 50.10756 | 22.22549 | 3182 ft | 169 kts | 275° |
| 2026-04-21 19:01 | 50.10777 | 22.20762 | 2953 ft | 161 kts | 276° |
| 2026-04-21 19:02 | 50.10795 | 22.19042 | 2726 ft | 156 kts | 276° |
| 2026-04-21 19:02 | 50.10809 | 22.17923 | 2582 ft | 155 kts | 276° |
| 2026-04-21 19:02 | 50.10831 | 22.15708 | 2327 ft | 150 kts | 276° |
| 2026-04-21 19:02 | 50.10847 | 22.14090 | 2130 ft | 149 kts | 276° |
| 2026-04-21 19:03 | 50.10859 | 22.13026 | 1986 ft | 143 kts | 276° |
| 2026-04-21 19:03 | 50.10870 | 22.11571 | 1732 ft | 127 kts | 276° |
| 2026-04-21 19:03 | 50.10889 | 22.09810 | 1376 ft | 119 kts | 274° |
| 2026-04-21 19:03 | 50.10905 | 22.08537 | 1134 ft | 116 kts | 273° |
| 2026-04-21 19:04 | 50.10918 | 22.07708 | 1051 ft | 109 kts | 272° |
| 2026-04-21 19:04 | 50.10936 | 22.06555 | 932 ft | 108 kts | 271° |
| 2026-04-21 19:04 | 50.10949 | 22.05401 | 829 ft | 104 kts | 271° |
| 2026-04-21 19:04 | 50.10965 | 22.04295 | 688 ft | 98 kts | 271° |
| 2026-04-21 19:05 | 50.10975 | 22.03349 | 676 ft | 77 kts | 271° |
| 2026-04-21 19:05 | 50.10987 | 22.02614 | 676 ft | 60 kts | 271° |
| 2026-04-21 19:05 | 50.10998 | 22.01730 | 675 ft | 113 kts | 271° |
| 2026-04-21 19:05 | 50.11019 | 22.00247 | 1010 ft | 158 kts | 272° |
| 2026-04-21 19:06 | 50.11047 | 21.98424 | 1610 ft | 178 kts | 272° |
| 2026-04-21 19:06 | 50.11049 | 21.96393 | 2319 ft | 202 kts | 272° |
| 2026-04-21 19:06 | 50.11008 | 21.94079 | 3012 ft | 225 kts | 271° |
| 2026-04-21 19:06 | 50.10967 | 21.91510 | 3690 ft | 248 kts | 271° |
| 2026-04-21 19:07 | 50.10927 | 21.88711 | 4377 ft | 267 kts | 271° |
| 2026-04-21 19:07 | 50.10892 | 21.85718 | 4982 ft | 286 kts | 271° |
| 2026-04-21 19:07 | 50.10858 | 21.82611 | 5001 ft | 288 kts | 271° |
| 2026-04-21 19:07 | 50.10824 | 21.79520 | 5453 ft | 278 kts | 271° |
| 2026-04-21 19:08 | 50.10786 | 21.76530 | 6231 ft | 274 kts | 271° |
| 2026-04-21 19:08 | 50.10749 | 21.73507 | 6999 ft | 281 kts | 271° |
| 2026-04-21 19:08 | 50.10712 | 21.70444 | 7773 ft | 284 kts | 271° |
| 2026-04-21 19:08 | 50.10667 | 21.67351 | 8563 ft | 287 kts | 271° |
| 2026-04-21 19:09 | 50.10621 | 21.64258 | 9368 ft | 290 kts | 271° |
| 2026-04-21 19:09 | 50.10571 | 21.61093 | 10166 ft | 294 kts | 272° |
| 2026-04-21 19:09 | 50.10514 | 21.57879 | 10917 ft | 299 kts | 271° |
| 2026-04-21 19:09 | 50.10456 | 21.54606 | 11686 ft | 303 kts | 271° |
| 2026-04-21 19:10 | 50.10406 | 21.51334 | 12462 ft | 307 kts | 271° |
| 2026-04-21 19:10 | 50.10355 | 21.47984 | 13272 ft | 309 kts | 271° |
| 2026-04-21 19:10 | 50.10310 | 21.44614 | 14074 ft | 311 kts | 271° |
| 2026-04-21 19:10 | 50.10271 | 21.41250 | 14680 ft | 317 kts | 271° |
| 2026-04-21 19:11 | 50.10235 | 21.37792 | 15311 ft | 321 kts | 271° |
| 2026-04-21 19:11 | 50.10198 | 21.34288 | 15950 ft | 324 kts | 271° |
| 2026-04-21 19:11 | 50.10163 | 21.30684 | 16110 ft | 343 kts | 271° |
| 2026-04-21 19:11 | 50.10133 | 21.26899 | 16120 ft | 350 kts | 271° |
| 2026-04-21 19:12 | 50.10100 | 21.23153 | 16120 ft | 347 kts | 271° |
| 2026-04-21 19:12 | 50.10064 | 21.19396 | 16119 ft | 347 kts | 271° |
| 2026-04-21 19:12 | 50.10031 | 21.15631 | 16118 ft | 347 kts | 271° |
| 2026-04-21 19:12 | 50.10000 | 21.11873 | 16114 ft | 347 kts | 271° |
| 2026-04-21 19:13 | 50.09966 | 21.08099 | 16115 ft | 347 kts | 271° |
| 2026-04-21 19:13 | 50.09933 | 21.04364 | 16112 ft | 347 kts | 271° |
| 2026-04-21 19:13 | 50.09901 | 21.00608 | 16112 ft | 347 kts | 271° |
| 2026-04-21 19:13 | 50.09867 | 20.96829 | 16114 ft | 347 kts | 271° |
| 2026-04-21 19:14 | 50.09833 | 20.93088 | 16114 ft | 347 kts | 271° |
| 2026-04-21 19:14 | 50.09800 | 20.89328 | 16113 ft | 347 kts | 271° |
| 2026-04-21 19:14 | 50.09767 | 20.85568 | 16115 ft | 348 kts | 271° |
| 2026-04-21 19:14 | 50.09733 | 20.81788 | 16115 ft | 348 kts | 271° |
| 2026-04-21 19:15 | 50.09700 | 20.78013 | 16115 ft | 348 kts | 271° |
| 2026-04-21 19:15 | 50.09667 | 20.74287 | 16114 ft | 348 kts | 271° |
| 2026-04-21 19:15 | 50.09631 | 20.70508 | 16114 ft | 348 kts | 271° |
| 2026-04-21 19:15 | 50.09597 | 20.66738 | 16112 ft | 348 kts | 271° |
| 2026-04-21 19:16 | 50.09564 | 20.62941 | 15655 ft | 344 kts | 271° |
| 2026-04-21 19:16 | 50.09527 | 20.59313 | 15043 ft | 325 kts | 271° |
| 2026-04-21 19:16 | 50.09489 | 20.55917 | 14422 ft | 316 kts | 271° |
| 2026-04-21 19:16 | 50.09450 | 20.52486 | 13780 ft | 310 kts | 271° |
| 2026-04-21 19:17 | 50.09371 | 20.45851 | 12425 ft | 302 kts | 271° |
| 2026-04-21 19:17 | 50.09331 | 20.42594 | 11771 ft | 298 kts | 271° |
| 2026-04-21 19:17 | 50.09502 | 20.39461 | 11127 ft | 291 kts | 288° |
| 2026-04-21 19:18 | 50.10436 | 20.36749 | 10493 ft | 281 kts | 314° |
| 2026-04-21 19:18 | 50.11970 | 20.34943 | 9874 ft | 274 kts | 333° |
| 2026-04-21 19:18 | 50.13670 | 20.33611 | 9199 ft | 271 kts | 336° |
| 2026-04-21 19:18 | 50.14223 | 20.33195 | 8980 ft | 270 kts | 336° |
| 2026-04-21 19:19 | 50.15871 | 20.31956 | 8329 ft | 267 kts | 336° |
| 2026-04-21 19:19 | 50.17545 | 20.30705 | 7675 ft | 264 kts | 336° |
| 2026-04-21 19:19 | 50.19180 | 20.29479 | 7035 ft | 254 kts | 336° |
| 2026-04-21 19:19 | 50.20717 | 20.28321 | 6405 ft | 243 kts | 336° |
| 2026-04-21 19:20 | 50.22213 | 20.27194 | 5838 ft | 231 kts | 336° |
| 2026-04-21 19:20 | 50.23632 | 20.26121 | 5554 ft | 224 kts | 336° |
| 2026-04-21 19:20 | 50.25035 | 20.25063 | 5306 ft | 223 kts | 336° |
| 2026-04-21 19:20 | 50.26410 | 20.24021 | 5061 ft | 222 kts | 336° |
| 2026-04-21 19:21 | 50.27791 | 20.22979 | 4980 ft | 220 kts | 336° |
| 2026-04-21 19:21 | 50.29169 | 20.21885 | 4986 ft | 222 kts | 329° |
| 2026-04-21 19:21 | 50.30188 | 20.20057 | 4987 ft | 230 kts | 297° |
| 2026-04-21 19:21 | 50.30411 | 20.17569 | 4985 ft | 237 kts | 264° |
| 2026-04-21 19:22 | 50.29741 | 20.15227 | 4990 ft | 244 kts | 231° |
| 2026-04-21 19:22 | 50.28349 | 20.13725 | 4989 ft | 247 kts | 199° |